sensor_id;sensor_type;location;lat;lon;timestamp;P1;durP1;ratioP1;P2;durP2;ratioP2
51495;SDS011;37572;52.094;4.870;2024-03-23T00:53:02;13.93;;;4.35;;
51495;SDS011;37572;52.094;4.870;2024-03-23T00:55:28;14.38;;;5.57;;
51495;SDS011;37572;52.094;4.870;2024-03-23T00:57:53;16.27;;;5.17;;
51495;SDS011;37572;52.094;4.870;2024-03-23T01:00:18;14.83;;;5.33;;
51495;SDS011;37572;52.094;4.870;2024-03-23T01:02:44;16.58;;;5.25;;
51495;SDS011;37572;52.094;4.870;2024-03-23T01:05:09;15.63;;;4.97;;
51495;SDS011;37572;52.094;4.870;2024-03-23T01:07:35;15.13;;;5.88;;
51495;SDS011;37572;52.094;4.870;2024-03-23T01:10:00;14.53;;;4.87;;
51495;SDS011;37572;52.094;4.870;2024-03-23T01:12:25;9.63;;;4.10;;
51495;SDS011;37572;52.094;4.870;2024-03-23T01:14:50;24.73;;;7.80;;
51495;SDS011;37572;52.094;4.870;2024-03-23T01:17:16;12.73;;;4.77;;
51495;SDS011;37572;52.094;4.870;2024-03-23T01:19:41;18.03;;;5.10;;
51495;SDS011;37572;52.094;4.870;2024-03-23T01:22:07;13.40;;;4.83;;
51495;SDS011;37572;52.094;4.870;2024-03-23T01:24:32;12.32;;;5.97;;
51495;SDS011;37572;52.094;4.870;2024-03-23T01:26:58;13.43;;;6.03;;
51495;SDS011;37572;52.094;4.870;2024-03-23T01:29:23;14.60;;;5.55;;
51495;SDS011;37572;52.094;4.870;2024-03-23T01:31:48;12.47;;;5.10;;
51495;SDS011;37572;52.094;4.870;2024-03-23T01:34:13;13.07;;;5.03;;
51495;SDS011;37572;52.094;4.870;2024-03-23T01:36:39;12.00;;;4.80;;
51495;SDS011;37572;52.094;4.870;2024-03-23T01:39:04;13.15;;;5.05;;
51495;SDS011;37572;52.094;4.870;2024-03-23T01:41:30;12.83;;;4.53;;
51495;SDS011;37572;52.094;4.870;2024-03-23T01:43:55;16.43;;;6.17;;
51495;SDS011;37572;52.094;4.870;2024-03-23T01:46:21;10.85;;;4.90;;
51495;SDS011;37572;52.094;4.870;2024-03-23T01:48:47;12.63;;;4.13;;
51495;SDS011;37572;52.094;4.870;2024-03-23T01:51:12;11.52;;;5.18;;
51495;SDS011;37572;52.094;4.870;2024-03-23T01:53:38;10.40;;;4.55;;
51495;SDS011;37572;52.094;4.870;2024-03-23T01:56:03;12.95;;;4.28;;
51495;SDS011;37572;52.094;4.870;2024-03-23T01:58:29;11.52;;;4.22;;
51495;SDS011;37572;52.094;4.870;2024-03-23T02:00:54;12.67;;;4.30;;
51495;SDS011;37572;52.094;4.870;2024-03-23T02:03:22;11.83;;;4.53;;
51495;SDS011;37572;52.094;4.870;2024-03-23T02:05:52;11.00;;;4.35;;
51495;SDS011;37572;52.094;4.870;2024-03-23T02:08:18;10.65;;;6.07;;
51495;SDS011;37572;52.094;4.870;2024-03-23T02:10:45;15.25;;;4.50;;
51495;SDS011;37572;52.094;4.870;2024-03-23T02:13:11;10.75;;;4.10;;
51495;SDS011;37572;52.094;4.870;2024-03-23T02:15:36;12.73;;;4.77;;
51495;SDS011;37572;52.094;4.870;2024-03-23T02:18:04;13.00;;;5.43;;
51495;SDS011;37572;52.094;4.870;2024-03-23T02:20:29;12.85;;;3.88;;
51495;SDS011;37572;52.094;4.870;2024-03-23T02:22:54;10.70;;;3.30;;
51495;SDS011;37572;52.094;4.870;2024-03-23T02:25:19;8.17;;;3.63;;
51495;SDS011;37572;52.094;4.870;2024-03-23T02:27:45;13.20;;;4.60;;
51495;SDS011;37572;52.094;4.870;2024-03-23T02:30:10;11.43;;;3.80;;
51495;SDS011;37572;52.094;4.870;2024-03-23T02:32:35;9.23;;;3.20;;
51495;SDS011;37572;52.094;4.870;2024-03-23T02:35:01;10.53;;;3.10;;
51495;SDS011;37572;52.094;4.870;2024-03-23T02:37:26;9.60;;;4.63;;
51495;SDS011;37572;52.094;4.870;2024-03-23T02:39:51;10.85;;;2.85;;
51495;SDS011;37572;52.094;4.870;2024-03-23T02:42:17;10.50;;;3.47;;
51495;SDS011;37572;52.094;4.870;2024-03-23T02:44:42;12.13;;;4.13;;
51495;SDS011;37572;52.094;4.870;2024-03-23T02:47:08;11.65;;;3.58;;
51495;SDS011;37572;52.094;4.870;2024-03-23T02:49:33;8.37;;;3.13;;
51495;SDS011;37572;52.094;4.870;2024-03-23T02:51:59;5.97;;;2.33;;
51495;SDS011;37572;52.094;4.870;2024-03-23T02:54:24;8.17;;;2.90;;
51495;SDS011;37572;52.094;4.870;2024-03-23T02:56:49;10.17;;;3.83;;
51495;SDS011;37572;52.094;4.870;2024-03-23T02:59:15;11.73;;;3.47;;
51495;SDS011;37572;52.094;4.870;2024-03-23T03:01:40;10.57;;;2.30;;
51495;SDS011;37572;52.094;4.870;2024-03-23T03:04:05;12.87;;;2.50;;
51495;SDS011;37572;52.094;4.870;2024-03-23T03:06:31;11.90;;;2.78;;
51495;SDS011;37572;52.094;4.870;2024-03-23T03:08:56;7.13;;;2.10;;
51495;SDS011;37572;52.094;4.870;2024-03-23T03:11:21;10.90;;;2.60;;
51495;SDS011;37572;52.094;4.870;2024-03-23T03:13:47;7.73;;;2.03;;
51495;SDS011;37572;52.094;4.870;2024-03-23T03:16:12;6.73;;;2.33;;
51495;SDS011;37572;52.094;4.870;2024-03-23T03:18:38;7.90;;;2.50;;
51495;SDS011;37572;52.094;4.870;2024-03-23T03:21:03;6.97;;;1.90;;
51495;SDS011;37572;52.094;4.870;2024-03-23T03:23:31;5.22;;;3.40;;
51495;SDS011;37572;52.094;4.870;2024-03-23T03:25:57;8.03;;;2.13;;
51495;SDS011;37572;52.094;4.870;2024-03-23T03:28:22;12.77;;;2.28;;
51495;SDS011;37572;52.094;4.870;2024-03-23T03:30:48;9.17;;;2.00;;
51495;SDS011;37572;52.094;4.870;2024-03-23T03:33:13;10.07;;;2.07;;
51495;SDS011;37572;52.094;4.870;2024-03-23T03:35:38;9.50;;;2.13;;
51495;SDS011;37572;52.094;4.870;2024-03-23T03:38:04;7.82;;;1.85;;
51495;SDS011;37572;52.094;4.870;2024-03-23T03:40:29;5.30;;;2.20;;
51495;SDS011;37572;52.094;4.870;2024-03-23T03:42:55;6.63;;;1.60;;
51495;SDS011;37572;52.094;4.870;2024-03-23T03:45:20;10.25;;;2.92;;
51495;SDS011;37572;52.094;4.870;2024-03-23T03:47:46;6.55;;;1.67;;
51495;SDS011;37572;52.094;4.870;2024-03-23T03:50:11;5.60;;;2.07;;
51495;SDS011;37572;52.094;4.870;2024-03-23T03:52:36;8.77;;;1.97;;
51495;SDS011;37572;52.094;4.870;2024-03-23T03:55:02;6.60;;;1.73;;
51495;SDS011;37572;52.094;4.870;2024-03-23T03:57:28;10.63;;;2.20;;
51495;SDS011;37572;52.094;4.870;2024-03-23T03:59:53;6.70;;;1.65;;
51495;SDS011;37572;52.094;4.870;2024-03-23T04:02:19;9.83;;;2.00;;
51495;SDS011;37572;52.094;4.870;2024-03-23T04:04:44;9.75;;;1.90;;
51495;SDS011;37572;52.094;4.870;2024-03-23T04:07:09;8.93;;;2.27;;
51495;SDS011;37572;52.094;4.870;2024-03-23T04:09:35;8.80;;;2.23;;
51495;SDS011;37572;52.094;4.870;2024-03-23T04:12:00;8.23;;;2.22;;
51495;SDS011;37572;52.094;4.870;2024-03-23T04:14:25;10.53;;;2.20;;
51495;SDS011;37572;52.094;4.870;2024-03-23T04:16:51;9.18;;;2.58;;
51495;SDS011;37572;52.094;4.870;2024-03-23T04:19:16;6.65;;;2.03;;
51495;SDS011;37572;52.094;4.870;2024-03-23T04:21:41;9.03;;;3.43;;
51495;SDS011;37572;52.094;4.870;2024-03-23T04:24:07;4.87;;;1.97;;
51495;SDS011;37572;52.094;4.870;2024-03-23T04:26:41;13.30;;;2.10;;
51495;SDS011;37572;52.094;4.870;2024-03-23T04:29:07;6.60;;;2.25;;
51495;SDS011;37572;52.094;4.870;2024-03-23T04:31:33;5.93;;;2.37;;
51495;SDS011;37572;52.094;4.870;2024-03-23T04:33:59;7.45;;;2.20;;
51495;SDS011;37572;52.094;4.870;2024-03-23T04:36:25;7.05;;;1.80;;
51495;SDS011;37572;52.094;4.870;2024-03-23T04:38:50;7.80;;;2.40;;
51495;SDS011;37572;52.094;4.870;2024-03-23T04:41:17;7.70;;;3.53;;
51495;SDS011;37572;52.094;4.870;2024-03-23T04:43:43;9.35;;;1.75;;
51495;SDS011;37572;52.094;4.870;2024-03-23T04:46:08;4.43;;;1.50;;
51495;SDS011;37572;52.094;4.870;2024-03-23T04:48:33;7.82;;;2.03;;
51495;SDS011;37572;52.094;4.870;2024-03-23T04:50:59;5.57;;;1.60;;
51495;SDS011;37572;52.094;4.870;2024-03-23T04:53:24;5.77;;;1.83;;
51495;SDS011;37572;52.094;4.870;2024-03-23T04:55:53;10.73;;;1.92;;
51495;SDS011;37572;52.094;4.870;2024-03-23T04:58:19;5.82;;;2.80;;
51495;SDS011;37572;52.094;4.870;2024-03-23T05:00:44;8.37;;;1.70;;
51495;SDS011;37572;52.094;4.870;2024-03-23T05:03:10;4.40;;;1.77;;
51495;SDS011;37572;52.094;4.870;2024-03-23T05:05:35;6.77;;;1.80;;
51495;SDS011;37572;52.094;4.870;2024-03-23T05:08:00;7.33;;;1.50;;
51495;SDS011;37572;52.094;4.870;2024-03-23T05:10:25;4.13;;;1.97;;
51495;SDS011;37572;52.094;4.870;2024-03-23T05:12:51;7.53;;;1.87;;
51495;SDS011;37572;52.094;4.870;2024-03-23T05:15:16;3.90;;;1.75;;
51495;SDS011;37572;52.094;4.870;2024-03-23T05:17:42;6.57;;;1.70;;
51495;SDS011;37572;52.094;4.870;2024-03-23T05:20:07;4.97;;;1.60;;
51495;SDS011;37572;52.094;4.870;2024-03-23T05:22:37;3.83;;;1.60;;
51495;SDS011;37572;52.094;4.870;2024-03-23T05:25:02;9.40;;;1.95;;
51495;SDS011;37572;52.094;4.870;2024-03-23T05:27:30;7.38;;;2.10;;
51495;SDS011;37572;52.094;4.870;2024-03-23T05:29:56;6.65;;;2.10;;
51495;SDS011;37572;52.094;4.870;2024-03-23T05:32:21;9.70;;;2.23;;
51495;SDS011;37572;52.094;4.870;2024-03-23T05:34:47;9.38;;;1.92;;
51495;SDS011;37572;52.094;4.870;2024-03-23T05:37:12;6.00;;;1.90;;
51495;SDS011;37572;52.094;4.870;2024-03-23T05:39:37;7.60;;;2.10;;
51495;SDS011;37572;52.094;4.870;2024-03-23T05:42:03;7.37;;;1.73;;
51495;SDS011;37572;52.094;4.870;2024-03-23T05:44:29;7.20;;;1.73;;
51495;SDS011;37572;52.094;4.870;2024-03-23T05:46:56;6.38;;;1.85;;
51495;SDS011;37572;52.094;4.870;2024-03-23T05:49:21;6.87;;;1.67;;
51495;SDS011;37572;52.094;4.870;2024-03-23T05:51:47;6.83;;;2.10;;
51495;SDS011;37572;52.094;4.870;2024-03-23T05:54:12;6.40;;;2.13;;
51495;SDS011;37572;52.094;4.870;2024-03-23T05:56:37;6.67;;;2.30;;
51495;SDS011;37572;52.094;4.870;2024-03-23T05:59:02;6.93;;;1.83;;
51495;SDS011;37572;52.094;4.870;2024-03-23T06:01:28;12.38;;;2.25;;
51495;SDS011;37572;52.094;4.870;2024-03-23T06:03:54;6.80;;;2.63;;
51495;SDS011;37572;52.094;4.870;2024-03-23T06:06:19;9.63;;;2.03;;
51495;SDS011;37572;52.094;4.870;2024-03-23T06:08:44;7.57;;;3.20;;
51495;SDS011;37572;52.094;4.870;2024-03-23T06:11:10;7.50;;;2.57;;
51495;SDS011;37572;52.094;4.870;2024-03-23T06:13:35;8.93;;;2.33;;
51495;SDS011;37572;52.094;4.870;2024-03-23T06:16:01;7.93;;;2.13;;
51495;SDS011;37572;52.094;4.870;2024-03-23T06:18:26;8.35;;;2.80;;
51495;SDS011;37572;52.094;4.870;2024-03-23T06:20:52;7.68;;;2.38;;
51495;SDS011;37572;52.094;4.870;2024-03-23T06:23:17;8.43;;;2.23;;
51495;SDS011;37572;52.094;4.870;2024-03-23T06:25:45;8.35;;;2.60;;
51495;SDS011;37572;52.094;4.870;2024-03-23T06:28:10;9.82;;;3.22;;
51495;SDS011;37572;52.094;4.870;2024-03-23T06:30:36;8.25;;;3.08;;
51495;SDS011;37572;52.094;4.870;2024-03-23T06:33:01;9.13;;;3.50;;
51495;SDS011;37572;52.094;4.870;2024-03-23T06:35:26;8.68;;;2.90;;
51495;SDS011;37572;52.094;4.870;2024-03-23T06:37:51;8.57;;;3.20;;
51495;SDS011;37572;52.094;4.870;2024-03-23T06:40:17;10.32;;;3.75;;
51495;SDS011;37572;52.094;4.870;2024-03-23T06:42:43;8.25;;;2.55;;
51495;SDS011;37572;52.094;4.870;2024-03-23T06:45:08;7.15;;;3.65;;
51495;SDS011;37572;52.094;4.870;2024-03-23T06:47:34;10.00;;;2.58;;
51495;SDS011;37572;52.094;4.870;2024-03-23T06:49:59;5.40;;;2.17;;
51495;SDS011;37572;52.094;4.870;2024-03-23T06:52:28;7.07;;;2.47;;
51495;SDS011;37572;52.094;4.870;2024-03-23T06:54:55;7.72;;;2.03;;
51495;SDS011;37572;52.094;4.870;2024-03-23T06:57:21;5.05;;;2.38;;
51495;SDS011;37572;52.094;4.870;2024-03-23T06:59:46;9.00;;;2.00;;
51495;SDS011;37572;52.094;4.870;2024-03-23T07:02:11;12.93;;;2.93;;
51495;SDS011;37572;52.094;4.870;2024-03-23T07:04:37;8.57;;;2.78;;
51495;SDS011;37572;52.094;4.870;2024-03-23T07:07:04;8.32;;;2.13;;
51495;SDS011;37572;52.094;4.870;2024-03-23T07:09:30;6.57;;;2.58;;
51495;SDS011;37572;52.094;4.870;2024-03-23T07:11:58;9.83;;;2.03;;
51495;SDS011;37572;52.094;4.870;2024-03-23T07:14:24;8.38;;;2.00;;
51495;SDS011;37572;52.094;4.870;2024-03-23T07:16:49;6.97;;;2.25;;
51495;SDS011;37572;52.094;4.870;2024-03-23T07:19:16;5.60;;;1.50;;
51495;SDS011;37572;52.094;4.870;2024-03-23T07:21:42;6.25;;;1.92;;
51495;SDS011;37572;52.094;4.870;2024-03-23T07:24:10;6.30;;;1.85;;
51495;SDS011;37572;52.094;4.870;2024-03-23T07:26:36;8.10;;;2.78;;
51495;SDS011;37572;52.094;4.870;2024-03-23T07:29:03;7.53;;;1.50;;
51495;SDS011;37572;52.094;4.870;2024-03-23T07:31:31;10.27;;;1.60;;
51495;SDS011;37572;52.094;4.870;2024-03-23T07:33:57;12.18;;;2.15;;
51495;SDS011;37572;52.094;4.870;2024-03-23T07:36:22;8.13;;;1.80;;
51495;SDS011;37572;52.094;4.870;2024-03-23T07:38:47;8.30;;;2.03;;
51495;SDS011;37572;52.094;4.870;2024-03-23T07:41:16;5.93;;;2.10;;
51495;SDS011;37572;52.094;4.870;2024-03-23T07:43:43;8.23;;;2.38;;
51495;SDS011;37572;52.094;4.870;2024-03-23T07:46:10;8.48;;;2.00;;
51495;SDS011;37572;52.094;4.870;2024-03-23T07:48:37;9.68;;;2.25;;
51495;SDS011;37572;52.094;4.870;2024-03-23T07:51:03;8.75;;;2.10;;
51495;SDS011;37572;52.094;4.870;2024-03-23T07:53:32;8.00;;;1.80;;
51495;SDS011;37572;52.094;4.870;2024-03-23T07:55:59;6.75;;;1.75;;
51495;SDS011;37572;52.094;4.870;2024-03-23T07:58:26;5.57;;;1.40;;
51495;SDS011;37572;52.094;4.870;2024-03-23T08:00:55;8.20;;;1.48;;
51495;SDS011;37572;52.094;4.870;2024-03-23T08:03:21;6.10;;;2.90;;
51495;SDS011;37572;52.094;4.870;2024-03-23T08:05:47;7.28;;;1.55;;
51495;SDS011;37572;52.094;4.870;2024-03-23T08:08:13;5.50;;;1.45;;
51495;SDS011;37572;52.094;4.870;2024-03-23T08:10:50;7.00;;;1.38;;
51495;SDS011;37572;52.094;4.870;2024-03-23T08:13:17;6.88;;;1.50;;
51495;SDS011;37572;52.094;4.870;2024-03-23T08:15:43;7.43;;;1.52;;
51495;SDS011;37572;52.094;4.870;2024-03-23T08:18:09;4.63;;;1.52;;
51495;SDS011;37572;52.094;4.870;2024-03-23T08:20:35;7.35;;;1.50;;
51495;SDS011;37572;52.094;4.870;2024-03-23T08:23:01;7.63;;;1.60;;
51495;SDS011;37572;52.094;4.870;2024-03-23T08:25:26;7.90;;;2.37;;
51495;SDS011;37572;52.094;4.870;2024-03-23T08:27:51;8.73;;;1.70;;
51495;SDS011;37572;52.094;4.870;2024-03-23T08:30:17;7.32;;;1.20;;
51495;SDS011;37572;52.094;4.870;2024-03-23T08:32:42;7.47;;;2.67;;
51495;SDS011;37572;52.094;4.870;2024-03-23T08:35:07;12.03;;;2.43;;
51495;SDS011;37572;52.094;4.870;2024-03-23T08:37:33;8.00;;;1.73;;
51495;SDS011;37572;52.094;4.870;2024-03-23T08:39:58;8.53;;;2.07;;
51495;SDS011;37572;52.094;4.870;2024-03-23T08:42:24;6.30;;;2.72;;
51495;SDS011;37572;52.094;4.870;2024-03-23T08:44:49;5.75;;;2.30;;
51495;SDS011;37572;52.094;4.870;2024-03-23T08:47:17;7.13;;;1.50;;
51495;SDS011;37572;52.094;4.870;2024-03-23T08:49:44;9.70;;;2.30;;
51495;SDS011;37572;52.094;4.870;2024-03-23T08:52:09;6.90;;;2.17;;
51495;SDS011;37572;52.094;4.870;2024-03-23T08:54:35;8.07;;;2.10;;
51495;SDS011;37572;52.094;4.870;2024-03-23T08:57:00;6.60;;;1.90;;
51495;SDS011;37572;52.094;4.870;2024-03-23T08:59:25;9.10;;;2.33;;
51495;SDS011;37572;52.094;4.870;2024-03-23T09:01:51;8.00;;;2.17;;
51495;SDS011;37572;52.094;4.870;2024-03-23T09:04:16;7.25;;;1.73;;
51495;SDS011;37572;52.094;4.870;2024-03-23T09:06:42;7.20;;;1.70;;
51495;SDS011;37572;52.094;4.870;2024-03-23T09:09:08;5.78;;;1.70;;
51495;SDS011;37572;52.094;4.870;2024-03-23T09:11:33;9.18;;;2.22;;
51495;SDS011;37572;52.094;4.870;2024-03-23T09:13:58;6.77;;;2.07;;
51495;SDS011;37572;52.094;4.870;2024-03-23T09:16:23;5.07;;;1.77;;
51495;SDS011;37572;52.094;4.870;2024-03-23T09:18:49;7.80;;;1.73;;
51495;SDS011;37572;52.094;4.870;2024-03-23T09:21:14;8.10;;;1.80;;
51495;SDS011;37572;52.094;4.870;2024-03-23T09:23:40;9.55;;;1.48;;
51495;SDS011;37572;52.094;4.870;2024-03-23T09:26:08;7.75;;;2.03;;
51495;SDS011;37572;52.094;4.870;2024-03-23T09:28:33;5.70;;;1.87;;
51495;SDS011;37572;52.094;4.870;2024-03-23T09:31:05;6.45;;;1.85;;
51495;SDS011;37572;52.094;4.870;2024-03-23T09:33:31;4.18;;;1.05;;
51495;SDS011;37572;52.094;4.870;2024-03-23T09:35:57;7.00;;;2.00;;
51495;SDS011;37572;52.094;4.870;2024-03-23T09:38:22;11.15;;;2.25;;
51495;SDS011;37572;52.094;4.870;2024-03-23T09:40:49;8.25;;;1.50;;
51495;SDS011;37572;52.094;4.870;2024-03-23T09:43:18;4.82;;;1.23;;
51495;SDS011;37572;52.094;4.870;2024-03-23T09:45:44;8.20;;;2.42;;
51495;SDS011;37572;52.094;4.870;2024-03-23T09:48:10;7.22;;;1.52;;
51495;SDS011;37572;52.094;4.870;2024-03-23T09:50:39;7.88;;;1.60;;
51495;SDS011;37572;52.094;4.870;2024-03-23T09:53:06;8.95;;;1.60;;
51495;SDS011;37572;52.094;4.870;2024-03-23T09:55:32;7.75;;;1.45;;
51495;SDS011;37572;52.094;4.870;2024-03-23T09:57:58;5.13;;;1.35;;
51495;SDS011;37572;52.094;4.870;2024-03-23T10:00:23;8.20;;;1.60;;
51495;SDS011;37572;52.094;4.870;2024-03-23T10:02:48;6.40;;;1.40;;
51495;SDS011;37572;52.094;4.870;2024-03-23T10:05:20;9.43;;;1.70;;
51495;SDS011;37572;52.094;4.870;2024-03-23T10:07:48;9.82;;;2.05;;
51495;SDS011;37572;52.094;4.870;2024-03-23T10:10:16;7.55;;;1.60;;
51495;SDS011;37572;52.094;4.870;2024-03-23T10:12:45;9.45;;;1.77;;
51495;SDS011;37572;52.094;4.870;2024-03-23T10:15:18;7.35;;;1.23;;
51495;SDS011;37572;52.094;4.870;2024-03-23T10:17:44;6.35;;;1.60;;
51495;SDS011;37572;52.094;4.870;2024-03-23T10:20:10;7.15;;;1.40;;
51495;SDS011;37572;52.094;4.870;2024-03-23T10:22:39;4.63;;;1.33;;
51495;SDS011;37572;52.094;4.870;2024-03-23T10:25:08;4.90;;;1.15;;
51495;SDS011;37572;52.094;4.870;2024-03-23T10:27:34;5.95;;;1.85;;
51495;SDS011;37572;52.094;4.870;2024-03-23T10:30:07;6.47;;;2.15;;
51495;SDS011;37572;52.094;4.870;2024-03-23T10:32:37;6.50;;;2.35;;
51495;SDS011;37572;52.094;4.870;2024-03-23T10:35:18;4.68;;;1.52;;
51495;SDS011;37572;52.094;4.870;2024-03-23T10:37:47;7.38;;;1.58;;
51495;SDS011;37572;52.094;4.870;2024-03-23T10:40:14;9.35;;;2.38;;
51495;SDS011;37572;52.094;4.870;2024-03-23T10:42:40;4.30;;;1.65;;
51495;SDS011;37572;52.094;4.870;2024-03-23T10:45:07;7.53;;;1.60;;
51495;SDS011;37572;52.094;4.870;2024-03-23T10:47:36;6.78;;;1.25;;
51495;SDS011;37572;52.094;4.870;2024-03-23T10:50:03;9.32;;;1.70;;
51495;SDS011;37572;52.094;4.870;2024-03-23T10:52:30;7.95;;;2.03;;
51495;SDS011;37572;52.094;4.870;2024-03-23T10:54:55;7.13;;;1.55;;
51495;SDS011;37572;52.094;4.870;2024-03-23T10:57:25;8.13;;;1.33;;
51495;SDS011;37572;52.094;4.870;2024-03-23T10:59:54;5.45;;;1.35;;
51495;SDS011;37572;52.094;4.870;2024-03-23T11:02:21;6.95;;;2.22;;
51495;SDS011;37572;52.094;4.870;2024-03-23T11:04:47;6.85;;;1.65;;
51495;SDS011;37572;52.094;4.870;2024-03-23T11:09:50;5.45;;;1.20;;
51495;SDS011;37572;52.094;4.870;2024-03-23T11:14:48;7.03;;;2.40;;
51495;SDS011;37572;52.094;4.870;2024-03-23T11:17:18;5.78;;;1.20;;
51495;SDS011;37572;52.094;4.870;2024-03-23T11:19:46;8.10;;;1.58;;
51495;SDS011;37572;52.094;4.870;2024-03-23T11:22:35;6.85;;;2.17;;
51495;SDS011;37572;52.094;4.870;2024-03-23T11:25:20;6.60;;;1.65;;
51495;SDS011;37572;52.094;4.870;2024-03-23T11:27:49;7.70;;;1.55;;
51495;SDS011;37572;52.094;4.870;2024-03-23T11:30:23;6.93;;;1.55;;
51495;SDS011;37572;52.094;4.870;2024-03-23T11:32:50;6.97;;;1.52;;
51495;SDS011;37572;52.094;4.870;2024-03-23T11:43:08;8.85;;;2.40;;
51495;SDS011;37572;52.094;4.870;2024-03-23T11:45:39;6.28;;;1.70;;
51495;SDS011;37572;52.094;4.870;2024-03-23T11:48:08;6.53;;;1.73;;
51495;SDS011;37572;52.094;4.870;2024-03-23T11:50:36;6.20;;;1.67;;
51495;SDS011;37572;52.094;4.870;2024-03-23T11:53:06;7.32;;;1.40;;
51495;SDS011;37572;52.094;4.870;2024-03-23T11:55:42;9.73;;;1.73;;
51495;SDS011;37572;52.094;4.870;2024-03-23T11:58:08;6.80;;;1.20;;
51495;SDS011;37572;52.094;4.870;2024-03-23T12:00:34;7.15;;;1.27;;
51495;SDS011;37572;52.094;4.870;2024-03-23T12:03:00;9.00;;;1.50;;
51495;SDS011;37572;52.094;4.870;2024-03-23T12:05:26;7.25;;;1.65;;
51495;SDS011;37572;52.094;4.870;2024-03-23T12:07:52;4.95;;;1.30;;
51495;SDS011;37572;52.094;4.870;2024-03-23T12:10:18;5.10;;;1.20;;
51495;SDS011;37572;52.094;4.870;2024-03-23T12:12:44;5.45;;;1.38;;
51495;SDS011;37572;52.094;4.870;2024-03-23T12:15:10;6.77;;;1.20;;
51495;SDS011;37572;52.094;4.870;2024-03-23T12:17:37;6.03;;;1.27;;
51495;SDS011;37572;52.094;4.870;2024-03-23T12:20:03;8.40;;;1.20;;
51495;SDS011;37572;52.094;4.870;2024-03-23T12:22:29;5.85;;;1.20;;
51495;SDS011;37572;52.094;4.870;2024-03-23T12:24:55;5.10;;;1.00;;
51495;SDS011;37572;52.094;4.870;2024-03-23T12:27:21;6.88;;;1.65;;
51495;SDS011;37572;52.094;4.870;2024-03-23T12:29:46;4.55;;;1.05;;
51495;SDS011;37572;52.094;4.870;2024-03-23T12:32:12;6.43;;;1.83;;
51495;SDS011;37572;52.094;4.870;2024-03-23T12:34:38;5.80;;;1.27;;
51495;SDS011;37572;52.094;4.870;2024-03-23T12:37:04;5.80;;;1.20;;
51495;SDS011;37572;52.094;4.870;2024-03-23T12:39:31;3.15;;;0.85;;
51495;SDS011;37572;52.094;4.870;2024-03-23T12:41:56;4.65;;;1.10;;
51495;SDS011;37572;52.094;4.870;2024-03-23T12:44:21;4.97;;;2.00;;
51495;SDS011;37572;52.094;4.870;2024-03-23T12:46:46;4.10;;;1.13;;
51495;SDS011;37572;52.094;4.870;2024-03-23T12:49:12;7.10;;;1.07;;
51495;SDS011;37572;52.094;4.870;2024-03-23T12:51:37;3.50;;;0.70;;
51495;SDS011;37572;52.094;4.870;2024-03-23T12:54:03;4.53;;;1.17;;
51495;SDS011;37572;52.094;4.870;2024-03-23T12:56:28;3.83;;;1.88;;
51495;SDS011;37572;52.094;4.870;2024-03-23T12:58:54;7.30;;;1.10;;
51495;SDS011;37572;52.094;4.870;2024-03-23T13:01:21;3.53;;;0.80;;
51495;SDS011;37572;52.094;4.870;2024-03-23T13:03:47;3.10;;;0.98;;
51495;SDS011;37572;52.094;4.870;2024-03-23T13:06:13;4.22;;;1.02;;
51495;SDS011;37572;52.094;4.870;2024-03-23T13:08:38;5.95;;;2.90;;
51495;SDS011;37572;52.094;4.870;2024-03-23T13:11:05;4.05;;;1.60;;
51495;SDS011;37572;52.094;4.870;2024-03-23T13:13:30;4.85;;;1.63;;
51495;SDS011;37572;52.094;4.870;2024-03-23T13:15:56;4.93;;;0.90;;
51495;SDS011;37572;52.094;4.870;2024-03-23T13:18:22;5.40;;;1.67;;
51495;SDS011;37572;52.094;4.870;2024-03-23T13:20:47;5.77;;;1.00;;
51495;SDS011;37572;52.094;4.870;2024-03-23T13:23:12;6.90;;;1.58;;
51495;SDS011;37572;52.094;4.870;2024-03-23T13:25:38;5.97;;;1.43;;
51495;SDS011;37572;52.094;4.870;2024-03-23T13:28:03;6.97;;;1.57;;
51495;SDS011;37572;52.094;4.870;2024-03-23T13:30:28;7.53;;;1.65;;
51495;SDS011;37572;52.094;4.870;2024-03-23T13:32:54;8.30;;;1.70;;
51495;SDS011;37572;52.094;4.870;2024-03-23T13:35:19;7.93;;;1.67;;
51495;SDS011;37572;52.094;4.870;2024-03-23T13:37:44;6.60;;;2.53;;
51495;SDS011;37572;52.094;4.870;2024-03-23T13:40:10;5.90;;;1.90;;
51495;SDS011;37572;52.094;4.870;2024-03-23T13:42:35;8.15;;;1.35;;
51495;SDS011;37572;52.094;4.870;2024-03-23T13:45:02;6.30;;;2.25;;
51495;SDS011;37572;52.094;4.870;2024-03-23T13:47:27;8.10;;;1.77;;
51495;SDS011;37572;52.094;4.870;2024-03-23T13:49:53;6.97;;;1.30;;
51495;SDS011;37572;52.094;4.870;2024-03-23T13:52:18;4.43;;;1.35;;
51495;SDS011;37572;52.094;4.870;2024-03-23T13:54:47;6.63;;;1.40;;
51495;SDS011;37572;52.094;4.870;2024-03-23T13:57:13;5.05;;;1.30;;
51495;SDS011;37572;52.094;4.870;2024-03-23T13:59:38;4.13;;;0.95;;
51495;SDS011;37572;52.094;4.870;2024-03-23T14:02:03;7.10;;;1.02;;
51495;SDS011;37572;52.094;4.870;2024-03-23T14:04:29;5.73;;;0.97;;
51495;SDS011;37572;52.094;4.870;2024-03-23T14:06:54;6.00;;;1.50;;
51495;SDS011;37572;52.094;4.870;2024-03-23T14:09:19;4.95;;;0.88;;
51495;SDS011;37572;52.094;4.870;2024-03-23T14:11:47;8.13;;;1.33;;
51495;SDS011;37572;52.094;4.870;2024-03-23T14:14:13;5.10;;;1.42;;
51495;SDS011;37572;52.094;4.870;2024-03-23T14:16:42;4.07;;;2.03;;
51495;SDS011;37572;52.094;4.870;2024-03-23T14:19:08;6.82;;;1.20;;
51495;SDS011;37572;52.094;4.870;2024-03-23T14:21:33;5.22;;;1.60;;
51495;SDS011;37572;52.094;4.870;2024-03-23T14:24:01;5.50;;;1.35;;
51495;SDS011;37572;52.094;4.870;2024-03-23T14:26:27;6.03;;;0.90;;
51495;SDS011;37572;52.094;4.870;2024-03-23T14:28:53;3.45;;;0.93;;
51495;SDS011;37572;52.094;4.870;2024-03-23T14:31:18;2.87;;;1.23;;
51495;SDS011;37572;52.094;4.870;2024-03-23T14:33:43;5.67;;;1.30;;
51495;SDS011;37572;52.094;4.870;2024-03-23T14:36:12;5.47;;;1.65;;
51495;SDS011;37572;52.094;4.870;2024-03-23T14:38:38;5.72;;;1.08;;
51495;SDS011;37572;52.094;4.870;2024-03-23T14:41:03;3.47;;;1.10;;
51495;SDS011;37572;52.094;4.870;2024-03-23T14:43:29;3.03;;;0.95;;
51495;SDS011;37572;52.094;4.870;2024-03-23T14:46:13;4.03;;;0.90;;
51495;SDS011;37572;52.094;4.870;2024-03-23T14:48:41;6.80;;;1.30;;
51495;SDS011;37572;52.094;4.870;2024-03-23T14:51:07;6.35;;;1.65;;
51495;SDS011;37572;52.094;4.870;2024-03-23T14:53:34;6.75;;;1.33;;
51495;SDS011;37572;52.094;4.870;2024-03-23T14:56:01;6.80;;;1.10;;
51495;SDS011;37572;52.094;4.870;2024-03-23T14:58:27;5.40;;;1.88;;
51495;SDS011;37572;52.094;4.870;2024-03-23T15:00:59;3.45;;;1.20;;
51495;SDS011;37572;52.094;4.870;2024-03-23T15:03:24;6.47;;;1.45;;
51495;SDS011;37572;52.094;4.870;2024-03-23T15:05:51;2.55;;;1.33;;
51495;SDS011;37572;52.094;4.870;2024-03-23T15:08:17;4.50;;;1.65;;
51495;SDS011;37572;52.094;4.870;2024-03-23T15:10:43;4.40;;;1.17;;
51495;SDS011;37572;52.094;4.870;2024-03-23T15:13:08;5.63;;;1.27;;
51495;SDS011;37572;52.094;4.870;2024-03-23T15:15:37;6.23;;;1.80;;
51495;SDS011;37572;52.094;4.870;2024-03-23T15:18:04;4.82;;;1.50;;
51495;SDS011;37572;52.094;4.870;2024-03-23T15:20:29;7.15;;;1.00;;
51495;SDS011;37572;52.094;4.870;2024-03-23T15:22:54;4.70;;;1.30;;
51495;SDS011;37572;52.094;4.870;2024-03-23T15:25:20;4.57;;;1.30;;
51495;SDS011;37572;52.094;4.870;2024-03-23T15:27:48;4.38;;;1.58;;
51495;SDS011;37572;52.094;4.870;2024-03-23T15:30:13;7.50;;;1.90;;
51495;SDS011;37572;52.094;4.870;2024-03-23T15:32:39;6.68;;;1.67;;
51495;SDS011;37572;52.094;4.870;2024-03-23T15:35:04;3.23;;;1.40;;
51495;SDS011;37572;52.094;4.870;2024-03-23T15:37:32;5.47;;;1.20;;
51495;SDS011;37572;52.094;4.870;2024-03-23T15:39:59;4.90;;;2.20;;
51495;SDS011;37572;52.094;4.870;2024-03-23T15:42:24;3.07;;;1.00;;
51495;SDS011;37572;52.094;4.870;2024-03-23T15:44:50;6.53;;;1.35;;